Time;durP1;ratioP1;P1;durP2;ratioP2;P2;SDS_P1;SDS_P2;PMS_P1;PMS_P2;Temp;Humidity;BMP_temperature;BMP_pressure;BME280_temperature;BME280_humidity;BME280_pressure;Samples;Min_cycle;Max_cycle;Signal;HPM_P1;HPM_P2
2022/03/18 00:01:59;;;;;;;7.93;3.03;;;;;;;;;;5015501;28;20553;-72
2022/03/18 00:04:27;;;;;;;4.55;2.50;;;;;;;;;;5014853;28;20037;-74
2022/03/18 00:06:55;;;;;;;7.10;2.53;;;;;;;;;;4997787;28;20054;-72
2022/03/18 00:09:22;;;;;;;5.53;2.55;;;;;;;;;;5015044;28;20512;-75
2022/03/18 00:11:50;;;;;;;8.60;2.70;;;;;;;;;;4981567;28;20061;-77
2022/03/18 00:14:21;;;;;;;10.52;2.58;;;;;;;;;;4981974;28;20046;-75
2022/03/18 00:16:50;;;;;;;5.20;2.72;;;;;;;;;;4995524;28;20498;-75
2022/03/18 00:19:20;;;;;;;6.50;2.72;;;;;;;;;;4995666;28;20471;-72
2022/03/18 00:21:47;;;;;;;8.02;2.40;;;;;;;;;;4995826;28;20378;-72
2022/03/18 00:24:15;;;;;;;4.30;2.22;;;;;;;;;;4977940;28;20057;-72
2022/03/18 00:26:42;;;;;;;7.28;2.53;;;;;;;;;;4995125;28;20121;-75
2022/03/18 00:29:10;;;;;;;4.93;2.80;;;;;;;;;;4977835;28;20106;-76
2022/03/18 00:31:39;;;;;;;3.63;2.58;;;;;;;;;;4977716;28;20046;-74
2022/03/18 00:34:08;;;;;;;9.15;2.63;;;;;;;;;;4995385;28;20120;-75
2022/03/18 00:36:37;;;;;;;7.60;2.53;;;;;;;;;;4961738;28;20082;-75
2022/03/18 00:39:06;;;;;;;7.38;2.42;;;;;;;;;;4995356;28;20679;-74
2022/03/18 00:41:33;;;;;;;4.90;2.67;;;;;;;;;;4977818;28;20470;-77
2022/03/18 00:44:02;;;;;;;10.48;2.92;;;;;;;;;;4978125;28;20049;-77
2022/03/18 00:46:29;;;;;;;4.90;2.35;;;;;;;;;;4995197;28;20042;-73
2022/03/18 00:54:29;;;;;;;5.80;2.72;;;;;;;;;;4978037;28;20053;-72
2022/03/18 00:56:57;;;;;;;3.75;2.60;;;;;;;;;;4995251;28;20046;-75
2022/03/18 00:59:24;;;;;;;8.77;2.38;;;;;;;;;;4995009;28;20125;-74
2022/03/18 01:01:52;;;;;;;3.45;2.60;;;;;;;;;;4994858;28;20057;-75
2022/03/18 01:04:20;;;;;;;9.07;2.55;;;;;;;;;;4977282;28;20105;-77
2022/03/18 01:06:49;;;;;;;6.55;2.53;;;;;;;;;;4994746;28;20038;-77
2022/03/18 01:09:19;;;;;;;4.57;2.35;;;;;;;;;;4994922;28;20049;-77
2022/03/18 01:11:47;;;;;;;5.68;2.80;;;;;;;;;;4994383;28;20069;-74
2022/03/18 01:14:15;;;;;;;5.28;2.30;;;;;;;;;;5005038;28;20117;-75
2022/03/18 01:16:42;;;;;;;6.95;2.70;;;;;;;;;;5013114;28;20049;-74
2022/03/18 01:19:10;;;;;;;9.68;2.70;;;;;;;;;;4996466;28;20045;-71
2022/03/18 01:21:37;;;;;;;5.88;2.60;;;;;;;;;;5013718;28;20065;-76
2022/03/18 01:24:07;;;;;;;5.40;2.72;;;;;;;;;;5014142;28;20048;-76
2022/03/18 01:26:35;;;;;;;5.10;2.70;;;;;;;;;;4996230;28;20073;-72
2022/03/18 01:29:05;;;;;;;6.10;2.80;;;;;;;;;;5014243;28;20038;-76
2022/03/18 01:31:34;;;;;;;5.95;2.80;;;;;;;;;;5013790;28;20080;-76
2022/03/18 01:34:03;;;;;;;4.15;2.65;;;;;;;;;;5013821;28;20124;-75
2022/03/18 01:36:32;;;;;;;7.03;3.15;;;;;;;;;;5013437;28;20045;-74
2022/03/18 01:39:01;;;;;;;3.30;2.42;;;;;;;;;;5013833;28;20046;-76
2022/03/18 01:41:28;;;;;;;7.93;2.72;;;;;;;;;;5013941;28;20100;-72
2022/03/18 01:43:56;;;;;;;5.10;2.80;;;;;;;;;;5013576;28;20052;-77
2022/03/18 01:46:26;;;;;;;8.90;3.15;;;;;;;;;;5013903;28;20521;-74
2022/03/18 01:48:54;;;;;;;6.35;2.70;;;;;;;;;;5013947;28;20429;-77
2022/03/18 01:51:22;;;;;;;4.10;2.72;;;;;;;;;;4995953;28;20120;-73
2022/03/18 01:54:44;;;;;;;4.38;2.80;;;;;;;;;;5014319;28;20038;-75
2022/03/18 01:56:38;;;;;;;9.70;3.55;;;;;;;;;;5013321;28;20414;-77
2022/03/18 01:59:05;;;;;;;6.80;3.38;;;;;;;;;;4995843;28;20077;-75
2022/03/18 02:01:33;;;;;;;6.93;2.95;;;;;;;;;;5027904;28;20374;-75
2022/03/18 02:04:02;;;;;;;6.47;3.25;;;;;;;;;;5013395;28;20042;-76
2022/03/18 02:06:35;;;;;;;7.07;3.38;;;;;;;;;;5013480;28;20410;-73
2022/03/18 02:09:05;;;;;;;8.88;3.20;;;;;;;;;;4995721;28;20525;-73
2022/03/18 02:11:32;;;;;;;9.52;3.15;;;;;;;;;;5013264;28;20038;-75
2022/03/18 02:14:00;;;;;;;6.75;3.08;;;;;;;;;;4995898;28;20069;-75
2022/03/18 02:16:27;;;;;;;6.43;3.28;;;;;;;;;;5013116;28;20128;-72
2022/03/18 02:18:55;;;;;;;7.07;3.88;;;;;;;;;;5013285;28;20038;-76
2022/03/18 02:21:28;;;;;;;8.77;3.85;;;;;;;;;;5013381;28;20120;-76
2022/03/18 02:23:56;;;;;;;6.20;2.95;;;;;;;;;;4995716;28;20401;-77
2022/03/18 02:26:23;;;;;;;8.05;3.08;;;;;;;;;;5012928;28;20037;-77
2022/03/18 02:28:52;;;;;;;5.95;3.20;;;;;;;;;;5012747;28;20054;-77
2022/03/18 02:31:20;;;;;;;8.40;3.60;;;;;;;;;;5013079;28;20401;-72
2022/03/18 02:33:47;;;;;;;5.30;3.08;;;;;;;;;;5013330;28;20061;-78
2022/03/18 02:36:16;;;;;;;7.43;3.05;;;;;;;;;;5013290;28;20048;-76
2022/03/18 02:38:44;;;;;;;6.72;3.22;;;;;;;;;;5012687;28;20133;-73
2022/03/18 02:41:12;;;;;;;5.35;3.53;;;;;;;;;;5012772;28;20544;-76
2022/03/18 02:43:40;;;;;;;5.40;3.15;;;;;;;;;;4995144;28;20053;-75
2022/03/18 02:46:11;;;;;;;8.02;3.17;;;;;;;;;;4995310;28;20046;-76
2022/03/18 02:48:38;;;;;;;8.82;3.38;;;;;;;;;;4995674;28;20130;-74
2022/03/18 02:51:07;;;;;;;8.65;3.05;;;;;;;;;;5012549;28;20038;-74
2022/03/18 02:53:36;;;;;;;7.10;3.50;;;;;;;;;;4995092;28;20093;-76
2022/03/18 02:56:04;;;;;;;5.22;3.30;;;;;;;;;;4995055;28;20129;-74
2022/03/18 02:58:32;;;;;;;8.40;3.40;;;;;;;;;;5012932;28;20046;-79
2022/03/18 03:01:00;;;;;;;4.10;3.55;;;;;;;;;;4995188;28;20145;-74
2022/03/18 03:03:28;;;;;;;7.22;3.42;;;;;;;;;;5012778;28;20057;-75
2022/03/18 03:08:43;;;;;;;4.07;2.85;;;;;;;;;;5012691;28;20113;-74
2022/03/18 03:11:11;;;;;;;7.13;3.25;;;;;;;;;;5012851;28;20070;-73
2022/03/18 03:13:39;;;;;;;5.80;2.97;;;;;;;;;;5014643;28;20121;-74
2022/03/18 03:16:08;;;;;;;11.88;3.03;;;;;;;;;;4998484;28;20116;-75
2022/03/18 03:18:36;;;;;;;8.43;2.95;;;;;;;;;;4999109;28;20409;-73
2022/03/18 03:21:04;;;;;;;4.80;3.17;;;;;;;;;;5016258;28;20042;-75
2022/03/18 03:23:31;;;;;;;5.88;3.10;;;;;;;;;;5016373;28;20077;-78
2022/03/18 03:25:59;;;;;;;7.05;3.15;;;;;;;;;;5016265;28;20044;-74
2022/03/18 03:28:26;;;;;;;7.70;3.28;;;;;;;;;;5015796;28;20509;-73
2022/03/18 03:30:55;;;;;;;9.25;3.22;;;;;;;;;;4998528;28;20045;-76
2022/03/18 03:33:26;;;;;;;7.40;3.45;;;;;;;;;;4998463;28;20045;-76
2022/03/18 03:35:55;;;;;;;5.55;3.17;;;;;;;;;;5016265;28;20072;-73
2022/03/18 03:38:23;;;;;;;5.18;2.90;;;;;;;;;;4998403;28;20046;-74
2022/03/18 03:40:50;;;;;;;7.70;3.17;;;;;;;;;;5015705;28;20361;-77
2022/03/18 03:43:18;;;;;;;8.57;3.08;;;;;;;;;;5015730;28;20043;-74
2022/03/18 03:45:45;;;;;;;8.13;3.60;;;;;;;;;;5016013;28;20037;-73
2022/03/18 03:48:16;;;;;;;6.45;3.00;;;;;;;;;;5015875;28;20045;-76
2022/03/18 03:50:45;;;;;;;6.47;3.30;;;;;;;;;;5016323;28;20042;-76
2022/03/18 03:53:13;;;;;;;6.95;3.35;;;;;;;;;;5015520;28;20124;-78
2022/03/18 03:55:40;;;;;;;10.57;3.88;;;;;;;;;;5015940;28;20470;-74
2022/03/18 03:58:09;;;;;;;8.88;3.63;;;;;;;;;;5015778;28;20564;-75
2022/03/18 04:00:37;;;;;;;6.78;3.63;;;;;;;;;;5015644;28;20037;-73
2022/03/18 04:03:05;;;;;;;8.77;3.40;;;;;;;;;;5015247;28;20506;-74
2022/03/18 04:05:33;;;;;;;7.32;3.50;;;;;;;;;;5015432;28;20044;-72
2022/03/18 04:08:02;;;;;;;8.45;3.45;;;;;;;;;;4997983;28;20120;-73
2022/03/18 04:10:30;;;;;;;11.23;3.65;;;;;;;;;;5015474;28;20417;-78
2022/03/18 04:12:58;;;;;;;8.13;3.03;;;;;;;;;;4997931;28;20078;-78
2022/03/18 04:15:26;;;;;;;6.85;3.20;;;;;;;;;;4997828;28;20406;-73
2022/03/18 04:17:54;;;;;;;9.50;3.53;;;;;;;;;;5015362;28;20042;-75
2022/03/18 04:20:22;;;;;;;8.20;3.28;;;;;;;;;;5015243;28;20072;-74
2022/03/18 04:22:50;;;;;;;11.93;3.47;;;;;;;;;;5015123;28;20042;-75
2022/03/18 04:25:20;;;;;;;8.05;3.30;;;;;;;;;;5014181;28;20060;-73
2022/03/18 04:27:48;;;;;;;4.93;3.25;;;;;;;;;;5014947;28;20063;-73
2022/03/18 04:30:16;;;;;;;7.00;3.30;;;;;;;;;;5015420;28;20041;-79
2022/03/18 04:32:44;;;;;;;7.30;3.40;;;;;;;;;;4997944;28;20124;-75
2022/03/18 04:35:13;;;;;;;10.35;3.20;;;;;;;;;;5015171;28;20385;-76
2022/03/18 04:37:42;;;;;;;9.32;3.50;;;;;;;;;;4997533;28;20049;-72
2022/03/18 04:40:11;;;;;;;11.55;4.43;;;;;;;;;;5014596;28;20053;-73
2022/03/18 04:42:40;;;;;;;10.52;3.58;;;;;;;;;;5015020;28;20046;-73
2022/03/18 04:45:08;;;;;;;8.70;4.00;;;;;;;;;;4997133;28;20117;-79
2022/03/18 04:47:36;;;;;;;14.98;3.60;;;;;;;;;;5014858;28;20049;-73
2022/03/18 04:50:04;;;;;;;8.63;3.13;;;;;;;;;;4997550;28;20407;-76
2022/03/18 04:52:34;;;;;;;7.57;3.80;;;;;;;;;;4997296;28;20045;-76
2022/03/18 04:55:01;;;;;;;12.00;4.35;;;;;;;;;;4981422;28;20489;-78
2022/03/18 04:57:31;;;;;;;9.52;3.60;;;;;;;;;;5014863;28;20080;-76
2022/03/18 05:00:05;;;;;;;10.50;3.20;;;;;;;;;;4997079;28;20067;-78
2022/03/18 05:02:36;;;;;;;7.22;3.28;;;;;;;;;;4997316;28;20065;-78
2022/03/18 05:05:05;;;;;;;6.28;3.55;;;;;;;;;;5014475;28;20124;-74
2022/03/18 05:07:32;;;;;;;5.22;3.33;;;;;;;;;;4997040;28;20088;-75
2022/03/18 05:10:00;;;;;;;8.75;3.80;;;;;;;;;;5014722;28;20046;-72
2022/03/18 05:12:31;;;;;;;7.30;3.63;;;;;;;;;;5014651;28;20556;-79
2022/03/18 05:14:59;;;;;;;5.10;3.17;;;;;;;;;;4997070;28;20050;-75
2022/03/18 05:17:27;;;;;;;9.77;4.00;;;;;;;;;;5013968;28;20041;-74
2022/03/18 05:20:00;;;;;;;6.20;4.15;;;;;;;;;;5014084;28;20052;-75
2022/03/18 05:22:30;;;;;;;13.38;4.70;;;;;;;;;;5014101;28;20088;-78
2022/03/18 05:25:00;;;;;;;12.55;4.68;;;;;;;;;;5013951;28;20093;-76
2022/03/18 05:27:27;;;;;;;11.90;4.55;;;;;;;;;;5013944;28;20124;-75
2022/03/18 05:29:55;;;;;;;13.60;4.85;;;;;;;;;;4996489;28;20057;-78
2022/03/18 05:32:23;;;;;;;10.80;4.47;;;;;;;;;;5013709;28;20379;-75
2022/03/18 05:34:50;;;;;;;12.07;4.25;;;;;;;;;;5013831;28;20053;-76
2022/03/18 05:37:18;;;;;;;10.20;4.65;;;;;;;;;;4996564;28;20068;-74
2022/03/18 05:39:45;;;;;;;8.88;4.60;;;;;;;;;;4995952;28;20152;-78
2022/03/18 05:42:13;;;;;;;8.90;4.63;;;;;;;;;;5013841;28;20050;-76
2022/03/18 05:44:40;;;;;;;8.77;4.53;;;;;;;;;;5013862;28;20042;-74
2022/03/18 05:47:08;;;;;;;6.82;4.45;;;;;;;;;;5013578;28;20042;-73
2022/03/18 05:49:36;;;;;;;9.95;4.70;;;;;;;;;;5013960;28;20382;-73
2022/03/18 05:52:08;;;;;;;12.93;4.97;;;;;;;;;;5013404;28;20048;-73
2022/03/18 05:54:35;;;;;;;13.80;5.15;;;;;;;;;;5013801;28;20046;-74
2022/03/18 05:57:03;;;;;;;8.98;4.07;;;;;;;;;;4995973;28;20486;-74
2022/03/18 05:59:33;;;;;;;13.20;4.70;;;;;;;;;;4996015;28;20162;-78
2022/03/18 06:02:01;;;;;;;9.50;4.20;;;;;;;;;;5013459;28;20073;-77
2022/03/18 06:04:31;;;;;;;10.88;4.85;;;;;;;;;;5012977;28;20049;-76
2022/03/18 06:07:01;;;;;;;10.57;4.70;;;;;;;;;;4979608;28;20541;-78
2022/03/18 06:12:15;;;;;;;15.13;5.05;;;;;;;;;;4996325;28;20050;-76
2022/03/18 06:14:42;;;;;;;9.02;4.72;;;;;;;;;;5013379;28;20086;-72
2022/03/18 06:17:10;;;;;;;11.13;4.32;;;;;;;;;;4995775;28;20119;-76
2022/03/18 06:19:37;;;;;;;14.85;4.40;;;;;;;;;;4995355;28;20413;-78
2022/03/18 06:22:08;;;;;;;16.13;4.78;;;;;;;;;;4996063;28;20083;-77
2022/03/18 06:24:36;;;;;;;8.95;4.60;;;;;;;;;;4995513;28;20489;-73
2022/03/18 06:27:05;;;;;;;17.05;5.15;;;;;;;;;;4994930;28;20033;-77
2022/03/18 06:29:32;;;;;;;12.13;4.63;;;;;;;;;;5012738;28;20117;-75
2022/03/18 06:32:00;;;;;;;9.63;3.67;;;;;;;;;;5012852;28;20049;-76
2022/03/18 06:34:27;;;;;;;9.10;3.80;;;;;;;;;;4994500;28;20038;-77
2022/03/18 06:36:57;;;;;;;10.23;3.80;;;;;;;;;;5015834;28;20037;-76
2022/03/18 06:39:26;;;;;;;6.65;3.25;;;;;;;;;;4993360;28;20045;-76
2022/03/18 06:41:54;;;;;;;8.05;3.88;;;;;;;;;;5012980;28;20079;-78
2022/03/18 06:44:22;;;;;;;8.35;3.60;;;;;;;;;;5001910;28;20076;-77
2022/03/18 06:46:50;;;;;;;6.43;3.95;;;;;;;;;;5012428;28;20042;-77
2022/03/18 06:49:17;;;;;;;8.98;3.78;;;;;;;;;;4997796;28;20046;-77
2022/03/18 06:51:45;;;;;;;14.82;4.15;;;;;;;;;;4998386;28;20132;-72
2022/03/18 06:54:12;;;;;;;7.65;3.55;;;;;;;;;;5015673;28;20045;-77
2022/03/18 06:56:40;;;;;;;7.32;3.25;;;;;;;;;;4999034;28;20050;-77
2022/03/18 06:59:07;;;;;;;14.23;4.22;;;;;;;;;;5016833;28;20077;-76
2022/03/18 07:01:35;;;;;;;10.75;3.47;;;;;;;;;;4999199;28;20050;-77
2022/03/18 07:04:03;;;;;;;10.45;3.70;;;;;;;;;;5016095;28;20050;-76
2022/03/18 07:06:32;;;;;;;9.05;3.80;;;;;;;;;;4999073;28;20531;-76
2022/03/18 07:08:59;;;;;;;7.88;4.22;;;;;;;;;;5016945;28;20056;-75
2022/03/18 07:11:27;;;;;;;5.72;3.95;;;;;;;;;;5016908;28;20121;-73
2022/03/18 07:13:54;;;;;;;7.35;3.55;;;;;;;;;;5091190;22;20055;-75
2022/03/18 07:19:10;;;;;;;7.70;3.50;;;;;;;;;;4995186;28;20054;-76
2022/03/18 07:21:40;;;;;;;6.45;3.47;;;;;;;;;;4995019;28;20054;-73
2022/03/18 07:24:08;;;;;;;12.38;4.97;;;;;;;;;;4995052;28;20077;-76
2022/03/18 07:26:36;;;;;;;9.70;4.18;;;;;;;;;;4996264;28;20409;-76
2022/03/18 07:29:05;;;;;;;12.15;3.60;;;;;;;;;;4996474;28;20090;-77
2022/03/18 07:31:33;;;;;;;6.78;3.35;;;;;;;;;;5008615;28;20053;-77
2022/03/18 07:34:01;;;;;;;10.52;4.10;;;;;;;;;;5016155;28;20092;-76
2022/03/18 07:36:29;;;;;;;15.35;4.05;;;;;;;;;;5016103;28;20038;-76
2022/03/18 07:38:57;;;;;;;6.70;3.47;;;;;;;;;;4998463;28;20096;-72
2022/03/18 07:41:25;;;;;;;11.57;3.90;;;;;;;;;;4997252;28;20401;-76
2022/03/18 07:43:53;;;;;;;9.05;3.88;;;;;;;;;;4998133;28;20046;-76
2022/03/18 07:46:20;;;;;;;11.70;3.70;;;;;;;;;;5015906;28;20045;-73
2022/03/18 07:48:52;;;;;;;9.80;3.90;;;;;;;;;;5015797;28;20507;-76
2022/03/18 07:51:19;;;;;;;8.50;3.83;;;;;;;;;;5015496;28;20042;-76
2022/03/18 07:53:47;;;;;;;9.75;3.95;;;;;;;;;;4998145;28;20054;-77
2022/03/18 07:56:14;;;;;;;12.38;3.60;;;;;;;;;;5014417;28;20072;-75
2022/03/18 07:58:42;;;;;;;8.45;3.42;;;;;;;;;;5015405;28;20432;-77
2022/03/18 08:01:12;;;;;;;10.43;3.67;;;;;;;;;;5014852;28;20042;-76
2022/03/18 08:03:40;;;;;;;8.15;3.97;;;;;;;;;;4997646;28;20416;-72
2022/03/18 08:06:08;;;;;;;5.53;3.40;;;;;;;;;;5015303;28;20052;-72
2022/03/18 08:08:36;;;;;;;6.50;3.60;;;;;;;;;;5014437;28;20120;-76
2022/03/18 08:11:04;;;;;;;5.35;3.45;;;;;;;;;;4997699;28;20049;-77
2022/03/18 08:13:34;;;;;;;7.43;3.60;;;;;;;;;;5023968;28;20168;-75
2022/03/18 08:16:02;;;;;;;5.82;3.17;;;;;;;;;;5034782;28;20046;-76
2022/03/18 08:18:34;;;;;;;8.38;3.60;;;;;;;;;;5035042;28;20455;-77
2022/03/18 08:21:01;;;;;;;14.80;3.70;;;;;;;;;;5017444;28;20046;-77
2022/03/18 08:23:32;;;;;;;10.13;3.78;;;;;;;;;;5017694;28;20124;-76
2022/03/18 08:26:00;;;;;;;11.65;3.70;;;;;;;;;;5017128;28;20511;-76
2022/03/18 08:28:27;;;;;;;12.48;3.45;;;;;;;;;;5034686;28;20095;-76
2022/03/18 08:30:55;;;;;;;7.45;3.17;;;;;;;;;;5035025;28;20037;-76
2022/03/18 08:33:24;;;;;;;10.25;3.78;;;;;;;;;;5017116;28;20045;-77
2022/03/18 08:35:52;;;;;;;12.80;3.72;;;;;;;;;;5034975;28;20412;-73
2022/03/18 08:38:21;;;;;;;6.55;3.20;;;;;;;;;;5034845;28;20045;-76
2022/03/18 08:40:51;;;;;;;10.75;3.53;;;;;;;;;;5034379;28;20045;-73
2022/03/18 08:43:18;;;;;;;6.80;3.25;;;;;;;;;;5034479;28;20060;-76
2022/03/18 08:45:46;;;;;;;10.55;3.95;;;;;;;;;;5034701;28;20041;-76
2022/03/18 08:48:13;;;;;;;8.18;3.28;;;;;;;;;;5016824;28;20128;-77
2022/03/18 08:50:41;;;;;;;14.23;3.38;;;;;;;;;;5017072;28;20045;-75
2022/03/18 08:53:11;;;;;;;7.05;3.38;;;;;;;;;;5034236;28;20037;-76
2022/03/18 08:55:40;;;;;;;7.50;3.05;;;;;;;;;;5016785;28;20076;-76
2022/03/18 08:58:09;;;;;;;9.52;3.20;;;;;;;;;;5017052;28;20041;-77
2022/03/18 09:00:37;;;;;;;7.88;2.63;;;;;;;;;;5017047;28;20103;-73
2022/03/18 09:03:05;;;;;;;9.35;3.30;;;;;;;;;;5033874;28;20409;-77
2022/03/18 09:05:33;;;;;;;10.07;3.08;;;;;;;;;;5034042;28;20120;-77
2022/03/18 09:08:01;;;;;;;6.40;2.95;;;;;;;;;;5034205;28;20033;-73
2022/03/18 09:10:29;;;;;;;6.78;2.80;;;;;;;;;;5016699;28;20042;-73
2022/03/18 09:13:00;;;;;;;12.60;3.42;;;;;;;;;;5034152;28;20061;-76
2022/03/18 09:15:29;;;;;;;7.90;3.33;;;;;;;;;;5033803;28;20037;-76
2022/03/18 09:17:58;;;;;;;10.05;3.70;;;;;;;;;;5033334;28;20052;-75
2022/03/18 09:20:26;;;;;;;5.00;3.10;;;;;;;;;;5034021;28;20164;-73
2022/03/18 09:22:53;;;;;;;7.22;2.85;;;;;;;;;;5034140;28;20125;-75
2022/03/18 09:25:21;;;;;;;6.30;3.20;;;;;;;;;;5016347;28;20412;-73
2022/03/18 09:27:51;;;;;;;7.40;3.22;;;;;;;;;;5016132;28;20080;-75
2022/03/18 09:30:39;;;;;;;5.85;3.88;;;;;;;;;;5019180;28;20416;-76
2022/03/18 09:33:07;;;;;;;10.23;3.58;;;;;;;;;;5034290;28;20432;-75
2022/03/18 09:35:35;;;;;;;9.43;3.33;;;;;;;;;;5033536;28;20037;-73
2022/03/18 09:38:03;;;;;;;8.20;3.30;;;;;;;;;;5033634;28;20045;-76
2022/03/18 09:40:31;;;;;;;5.47;2.78;;;;;;;;;;5033316;28;20050;-76
2022/03/18 09:43:20;;;;;;;10.65;3.55;;;;;;;;;;5033285;28;20125;-77
2022/03/18 09:45:51;;;;;;;8.70;3.67;;;;;;;;;;5032946;28;20508;-75
2022/03/18 09:48:40;;;;;;;7.13;3.08;;;;;;;;;;5018725;28;20377;-75
2022/03/18 09:51:08;;;;;;;8.10;3.30;;;;;;;;;;5000013;28;20042;-77
2022/03/18 09:53:36;;;;;;;10.82;3.78;;;;;;;;;;5033220;28;20505;-77
2022/03/18 09:56:05;;;;;;;13.00;3.88;;;;;;;;;;5016167;28;20038;-75
2022/03/18 09:58:33;;;;;;;11.52;3.55;;;;;;;;;;5033054;28;20124;-73
2022/03/18 10:01:01;;;;;;;13.63;3.30;;;;;;;;;;5033539;28;20045;-76
2022/03/18 10:03:37;;;;;;;5.40;2.90;;;;;;;;;;4997573;28;20052;-77
2022/03/18 10:06:05;;;;;;;4.50;2.85;;;;;;;;;;5006185;28;20045;-77
2022/03/18 10:08:42;;;;;;;7.13;3.15;;;;;;;;;;5004252;28;20057;-76
2022/03/18 10:11:20;;;;;;;9.82;3.15;;;;;;;;;;5009802;28;20050;-72
2022/03/18 10:13:52;;;;;;;6.60;2.95;;;;;;;;;;5021296;28;20057;-76
2022/03/18 10:16:34;;;;;;;10.40;3.70;;;;;;;;;;5022270;28;20041;-77
2022/03/18 10:19:04;;;;;;;12.88;3.83;;;;;;;;;;5022818;28;20503;-76
2022/03/18 10:21:32;;;;;;;8.50;3.70;;;;;;;;;;5023052;28;20401;-73
2022/03/18 10:24:07;;;;;;;9.73;4.15;;;;;;;;;;5027755;28;20497;-75
2022/03/18 10:26:36;;;;;;;10.80;4.70;;;;;;;;;;4998153;28;20088;-75
2022/03/18 10:29:05;;;;;;;15.85;4.60;;;;;;;;;;5031995;28;20029;-75
2022/03/18 10:31:32;;;;;;;12.23;4.30;;;;;;;;;;5029951;28;20076;-75
2022/03/18 10:39:38;;;;;;;12.00;4.22;;;;;;;;;;5032324;28;20395;-72
2022/03/18 10:42:12;;;;;;;9.32;3.88;;;;;;;;;;5021510;28;20045;-75
2022/03/18 10:44:44;;;;;;;17.13;4.20;;;;;;;;;;5032353;28;20425;-77
2022/03/18 10:47:29;;;;;;;13.20;4.20;;;;;;;;;;5010689;28;20046;-73
2022/03/18 10:50:12;;;;;;;14.43;4.32;;;;;;;;;;5031057;28;20042;-76
2022/03/18 10:52:41;;;;;;;9.48;3.80;;;;;;;;;;5031063;28;20048;-77
2022/03/18 10:55:25;;;;;;;11.07;3.65;;;;;;;;;;5029904;28;20037;-73
2022/03/18 10:57:54;;;;;;;11.35;4.10;;;;;;;;;;5012651;28;20037;-73
2022/03/18 11:00:23;;;;;;;7.47;3.67;;;;;;;;;;5014698;28;20034;-76
2022/03/18 11:02:52;;;;;;;11.32;4.45;;;;;;;;;;5030129;28;20073;-76
2022/03/18 11:05:22;;;;;;;12.95;4.10;;;;;;;;;;5032397;28;20045;-73
2022/03/18 11:07:53;;;;;;;13.90;3.90;;;;;;;;;;5032264;28;20042;-76
2022/03/18 11:13:09;;;;;;;9.18;4.10;;;;;;;;;;5031847;28;20049;-77
2022/03/18 11:15:40;;;;;;;10.20;3.70;;;;;;;;;;5032635;28;20040;-78
2022/03/18 11:18:11;;;;;;;5.68;3.30;;;;;;;;;;5032196;28;20041;-73
2022/03/18 11:20:43;;;;;;;9.30;3.05;;;;;;;;;;5032522;28;20096;-76
2022/03/18 11:23:18;;;;;;;9.83;3.83;;;;;;;;;;5014709;28;20049;-76
2022/03/18 11:25:50;;;;;;;9.27;3.33;;;;;;;;;;5032332;28;20072;-73
2022/03/18 11:28:18;;;;;;;7.82;3.17;;;;;;;;;;5031983;28;20073;-76
2022/03/18 11:30:50;;;;;;;11.88;3.53;;;;;;;;;;5031880;28;20044;-76
2022/03/18 11:33:17;;;;;;;5.30;3.38;;;;;;;;;;5029412;28;20544;-76
2022/03/18 11:35:49;;;;;;;6.65;3.50;;;;;;;;;;5017257;28;20074;-75
2022/03/18 11:38:23;;;;;;;14.40;3.70;;;;;;;;;;5030093;28;20037;-76
2022/03/18 11:40:57;;;;;;;9.43;3.95;;;;;;;;;;5007966;28;20061;-75
2022/03/18 11:43:29;;;;;;;8.52;3.90;;;;;;;;;;5034338;28;20112;-73
2022/03/18 11:46:16;;;;;;;8.00;3.63;;;;;;;;;;5016808;28;20041;-71
2022/03/18 11:48:50;;;;;;;10.20;4.07;;;;;;;;;;5034929;28;20500;-77
2022/03/18 11:51:32;;;;;;;16.60;4.50;;;;;;;;;;5034459;28;20037;-77
2022/03/18 11:54:00;;;;;;;18.95;4.90;;;;;;;;;;5029177;28;20041;-72
2022/03/18 11:56:41;;;;;;;11.93;4.40;;;;;;;;;;5034566;28;20045;-76
2022/03/18 11:59:32;;;;;;;12.55;4.20;;;;;;;;;;5031540;28;20049;-77
2022/03/18 12:02:06;;;;;;;10.93;4.30;;;;;;;;;;5016255;28;20037;-78
2022/03/18 12:04:36;;;;;;;8.52;3.92;;;;;;;;;;5033986;28;20048;-73
2022/03/18 12:07:08;;;;;;;13.60;3.75;;;;;;;;;;5034501;28;20132;-74
2022/03/18 12:09:56;;;;;;;12.45;4.00;;;;;;;;;;5013389;28;20048;-73
2022/03/18 12:12:23;;;;;;;9.77;4.00;;;;;;;;;;5030367;28;20033;-75
2022/03/18 12:14:53;;;;;;;8.95;3.90;;;;;;;;;;5034064;28;20050;-77
2022/03/18 12:17:22;;;;;;;11.35;4.20;;;;;;;;;;5033758;28;20041;-77
2022/03/18 12:19:52;;;;;;;13.45;3.58;;;;;;;;;;5011005;28;20045;-78
2022/03/18 12:22:20;;;;;;;7.85;3.42;;;;;;;;;;5012450;28;20045;-78
2022/03/18 12:24:49;;;;;;;7.28;3.50;;;;;;;;;;5033006;28;20034;-78
2022/03/18 12:27:17;;;;;;;8.02;3.85;;;;;;;;;;5028479;28;20051;-73
2022/03/18 12:29:45;;;;;;;6.57;3.95;;;;;;;;;;5030581;28;20049;-76
2022/03/18 12:32:13;;;;;;;7.90;4.00;;;;;;;;;;5027808;28;20063;-73
2022/03/18 12:34:48;;;;;;;11.93;4.03;;;;;;;;;;5023638;28;20042;-76
2022/03/18 12:37:19;;;;;;;9.65;4.15;;;;;;;;;;5023063;28;20041;-74
2022/03/18 12:39:49;;;;;;;5.03;3.60;;;;;;;;;;5020810;28;20398;-74
2022/03/18 12:42:17;;;;;;;10.88;3.90;;;;;;;;;;5006774;28;20044;-75
2022/03/18 12:44:48;;;;;;;8.73;3.90;;;;;;;;;;5024025;28;20038;-73
2022/03/18 12:47:16;;;;;;;9.45;4.72;;;;;;;;;;5021961;28;20126;-75
2022/03/18 12:49:44;;;;;;;7.68;3.33;;;;;;;;;;5027245;28;20516;-73
2022/03/18 12:52:13;;;;;;;8.00;3.55;;;;;;;;;;5023945;28;20113;-76
2022/03/18 12:55:02;;;;;;;12.13;3.97;;;;;;;;;;5018364;28;20042;-74
2022/03/18 12:57:32;;;;;;;12.65;4.05;;;;;;;;;;5023579;28;20085;-75
2022/03/18 13:00:00;;;;;;;13.02;4.68;;;;;;;;;;5026141;28;20065;-72
2022/03/18 13:02:52;;;;;;;12.25;4.70;;;;;;;;;;5004555;28;20516;-77
2022/03/18 13:05:20;;;;;;;10.17;5.10;;;;;;;;;;5024399;28;20052;-72
2022/03/18 13:07:50;;;;;;;11.07;5.32;;;;;;;;;;5003822;28;20045;-73
2022/03/18 13:10:21;;;;;;;8.40;4.78;;;;;;;;;;5027755;28;20034;-73
2022/03/18 13:12:49;;;;;;;9.73;5.28;;;;;;;;;;5007707;28;20037;-77
2022/03/18 13:15:20;;;;;;;13.13;4.85;;;;;;;;;;5021590;28;20096;-73
2022/03/18 13:17:49;;;;;;;10.48;4.78;;;;;;;;;;5026432;28;20117;-75
2022/03/18 13:20:24;;;;;;;11.15;4.38;;;;;;;;;;5030803;28;20124;-74
2022/03/18 13:22:54;;;;;;;10.43;4.70;;;;;;;;;;5030960;28;20139;-76
2022/03/18 13:25:24;;;;;;;11.68;5.07;;;;;;;;;;5025317;28;20044;-76
2022/03/18 13:27:52;;;;;;;13.57;4.85;;;;;;;;;;5023891;28;20044;-73
2022/03/18 13:33:10;;;;;;;16.42;5.35;;;;;;;;;;5020543;28;20030;-75
2022/03/18 13:35:45;;;;;;;10.85;4.90;;;;;;;;;;4996380;28;20104;-77
2022/03/18 13:38:18;;;;;;;13.52;5.05;;;;;;;;;;5000778;28;20120;-76
2022/03/18 13:40:55;;;;;;;14.68;5.00;;;;;;;;;;5004717;28;20046;-77
2022/03/18 13:43:26;;;;;;;11.25;4.82;;;;;;;;;;5012918;28;20033;-77
2022/03/18 13:46:15;;;;;;;9.70;4.63;;;;;;;;;;5014013;28;20058;-75
2022/03/18 13:48:44;;;;;;;10.38;4.75;;;;;;;;;;5019488;28;20045;-75
2022/03/18 13:51:12;;;;;;;9.13;4.68;;;;;;;;;;5016340;28;20049;-76
2022/03/18 13:53:40;;;;;;;13.35;5.10;;;;;;;;;;5032273;28;20120;-75
2022/03/18 13:56:16;;;;;;;11.25;5.10;;;;;;;;;;5032509;28;20041;-75
2022/03/18 13:58:44;;;;;;;15.48;5.00;;;;;;;;;;5029109;28;20045;-77
2022/03/18 14:01:19;;;;;;;11.80;5.32;;;;;;;;;;5029935;28;20065;-74
2022/03/18 14:03:54;;;;;;;12.98;5.18;;;;;;;;;;5014383;28;20107;-76
2022/03/18 14:06:23;;;;;;;16.75;5.55;;;;;;;;;;5011653;28;20092;-74
2022/03/18 14:08:54;;;;;;;11.98;4.85;;;;;;;;;;5013985;28;20045;-74
2022/03/18 14:14:28;;;;;;;14.43;5.68;;;;;;;;;;5011002;28;20448;-75
2022/03/18 14:17:08;;;;;;;14.05;6.53;;;;;;;;;;5020274;28;20054;-72
2022/03/18 14:19:59;;;;;;;11.32;5.65;;;;;;;;;;5006161;28;20046;-72
2022/03/18 14:22:29;;;;;;;14.60;6.05;;;;;;;;;;5018079;28;20040;-76
2022/03/18 14:24:57;;;;;;;15.20;5.72;;;;;;;;;;5015038;28;20132;-74
2022/03/18 14:27:25;;;;;;;15.70;6.45;;;;;;;;;;5029096;28;20493;-75
2022/03/18 14:29:53;;;;;;;14.10;6.20;;;;;;;;;;5019399;28;20105;-72
2022/03/18 14:32:22;;;;;;;13.50;6.88;;;;;;;;;;5014149;28;20040;-73
2022/03/18 14:34:52;;;;;;;18.25;7.03;;;;;;;;;;5012999;28;20042;-74
2022/03/18 14:37:20;;;;;;;22.35;7.80;;;;;;;;;;5014480;28;20064;-73
2022/03/18 14:39:48;;;;;;;18.70;8.75;;;;;;;;;;5014366;28;20060;-76
2022/03/18 14:42:15;;;;;;;22.50;8.95;;;;;;;;;;5008625;28;20042;-78
2022/03/18 14:44:43;;;;;;;24.13;8.90;;;;;;;;;;5015378;28;20046;-76
2022/03/18 14:47:10;;;;;;;19.90;9.35;;;;;;;;;;5015046;28;20497;-71
2022/03/18 14:49:41;;;;;;;21.88;10.15;;;;;;;;;;5033374;28;20038;-77
2022/03/18 14:52:08;;;;;;;32.33;11.65;;;;;;;;;;5032703;28;20449;-76
2022/03/18 14:57:22;;;;;;;31.00;13.00;;;;;;;;;;5023015;28;20497;-76
2022/03/18 14:59:49;;;;;;;32.25;12.40;;;;;;;;;;5025412;28;20041;-75
2022/03/18 15:02:17;;;;;;;27.83;11.90;;;;;;;;;;5025155;28;20050;-76
2022/03/18 15:04:44;;;;;;;33.83;13.43;;;;;;;;;;5028670;28;20045;-72
2022/03/18 15:07:12;;;;;;;28.45;12.15;;;;;;;;;;5028874;28;20049;-75
2022/03/18 15:09:41;;;;;;;33.50;12.93;;;;;;;;;;5024674;28;20037;-76
2022/03/18 15:12:09;;;;;;;27.33;11.80;;;;;;;;;;5028426;28;20516;-76
2022/03/18 15:14:36;;;;;;;38.28;14.52;;;;;;;;;;5016463;28;20050;-75
2022/03/18 15:17:04;;;;;;;33.10;13.35;;;;;;;;;;5033606;28;20034;-75
2022/03/18 15:19:31;;;;;;;37.65;13.65;;;;;;;;;;5012398;28;20460;-72
2022/03/18 15:22:00;;;;;;;33.50;13.60;;;;;;;;;;5038755;28;20037;-76
2022/03/18 15:24:27;;;;;;;35.70;13.85;;;;;;;;;;5031442;28;20097;-76